Dresden, Canada
Current Conditions -  °F | °C
As of 2:00 AM on Monday 24 Nov 2014 (Local Time) from CYCK Reporting Station
Overcast Overcast  
Wind Chill: 50°   Ceiling: 6500
Heat Index: 50°   Visibility: 9mi
Dew Point: 48°   Wind: 25mph
Humidity: 94%   Direction: 160°SSE
Pressure: 29.17"   Gusts: 32mph
Location:  42.58°N, 82.17°W
Report Text: CYCK 240700Z AUTO 16022G28KT 9SM SCT043 SCT055 BKN065 OVC093 10/09 A2917 RMK PRESFR SLP881 DENSITY ALT 1000FT
Loading
Personal Weather Stations






























Interactive Weather Map New forecast layout! Learn more

10-Day Weather Forecast

Advertisements
Track Severe Weather on mobile